Time;durP1;ratioP1;P1;durP2;ratioP2;P2;SDS_P1;SDS_P2;PMS_P1;PMS_P2;Temp;Humidity;BMP_temperature;BMP_pressure;BME280_temperature;BME280_humidity;BME280_pressure;Samples;Min_cycle;Max_cycle;Signal;HPM_P1;HPM_P2
2023/09/13 00:01:05;;;;;;;;;27.33;24.67;;;;;;;;5089557;27;45740;-75
2023/09/13 00:03:31;;;;;;;;;27.00;23.67;;;;;;;;5083574;27;45749;-75
2023/09/13 00:05:56;;;;;;;;;19.67;17.33;;;;;;;;5090894;27;45843;-74
2023/09/13 00:08:22;;;;;;;;;28.67;25.67;;;;;;;;5094793;27;45301;-74
2023/09/13 00:10:47;;;;;;;;;12.00;10.33;;;;;;;;5092829;27;45489;-73
2023/09/13 00:13:13;;;;;;;;;12.00;11.33;;;;;;;;5089733;27;45572;-73
2023/09/13 00:15:42;;;;;;;;;19.33;17.67;;;;;;;;5086774;27;45795;-74
2023/09/13 00:18:08;;;;;;;;;33.67;31.33;;;;;;;;5092691;27;45631;-75
2023/09/13 00:20:33;;;;;;;;;20.00;19.00;;;;;;;;5077238;27;45755;-73
2023/09/13 00:22:58;;;;;;;;;34.33;30.33;;;;;;;;5096338;27;45725;-74
2023/09/13 00:25:24;;;;;;;;;37.67;30.33;;;;;;;;5093275;27;45677;-73
2023/09/13 00:27:49;;;;;;;;;27.00;26.33;;;;;;;;5076789;27;46734;-73
2023/09/13 00:30:14;;;;;;;;;23.67;20.33;;;;;;;;5096733;27;45392;-79
2023/09/13 00:32:39;;;;;;;;;46.67;37.33;;;;;;;;5076050;27;45512;-75
2023/09/13 00:35:05;;;;;;;;;31.33;26.33;;;;;;;;5096193;27;45942;-75
2023/09/13 00:37:30;;;;;;;;;44.00;37.67;;;;;;;;5094872;27;46402;-74
2023/09/13 00:39:55;;;;;;;;;38.00;31.67;;;;;;;;5077286;27;45442;-74
2023/09/13 00:42:20;;;;;;;;;24.00;21.33;;;;;;;;5095984;27;45406;-78
2023/09/13 00:44:46;;;;;;;;;35.33;32.00;;;;;;;;5095933;27;45334;-78
2023/09/13 00:47:12;;;;;;;;;49.00;38.33;;;;;;;;5095602;27;45330;-74
2023/09/13 00:49:38;;;;;;;;;27.00;25.00;;;;;;;;5086640;27;45472;-78
2023/09/13 00:52:03;;;;;;;;;30.33;28.67;;;;;;;;5083180;27;45907;-75
2023/09/13 00:54:28;;;;;;;;;61.00;45.33;;;;;;;;5082604;27;45840;-75
2023/09/13 00:56:55;;;;;;;;;23.67;22.67;;;;;;;;5094614;27;45645;-75
2023/09/13 00:59:21;;;;;;;;;55.33;45.00;;;;;;;;5089494;27;45712;-76
2023/09/13 01:01:47;;;;;;;;;35.00;32.67;;;;;;;;5094842;27;45454;-75
2023/09/13 01:04:12;;;;;;;;;37.00;33.33;;;;;;;;5094484;27;45355;-76
2023/09/13 01:06:37;;;;;;;;;35.00;31.33;;;;;;;;5093261;27;45802;-74
2023/09/13 01:09:04;;;;;;;;;25.00;24.00;;;;;;;;5094625;27;45517;-74
2023/09/13 01:11:29;;;;;;;;;36.67;29.33;;;;;;;;5095420;27;45767;-76
2023/09/13 01:13:55;;;;;;;;;30.33;28.00;;;;;;;;5075894;27;45772;-75
2023/09/13 01:16:23;;;;;;;;;26.00;23.33;;;;;;;;5093159;27;46974;-74
2023/09/13 01:18:55;;;;;;;;;30.33;26.33;;;;;;;;5094543;27;45305;-74
2023/09/13 01:21:26;;;;;;;;;24.67;24.00;;;;;;;;5095213;27;45440;-74
2023/09/13 01:24:06;;;;;;;;;25.00;23.00;;;;;;;;5094848;27;45429;-74
2023/09/13 01:26:51;;;;;;;;;46.33;32.33;;;;;;;;5075403;27;47423;-75
2023/09/13 01:29:16;;;;;;;;;27.67;21.33;;;;;;;;5072760;27;45391;-75
2023/09/13 01:31:42;;;;;;;;;22.67;19.33;;;;;;;;5073078;28;45706;-77
2023/09/13 01:34:07;;;;;;;;;31.00;24.00;;;;;;;;5070089;27;45634;-74
2023/09/13 01:36:32;;;;;;;;;26.00;25.33;;;;;;;;5073376;27;46369;-74
2023/09/13 01:38:57;;;;;;;;;25.33;23.00;;;;;;;;5071300;28;45394;-75
2023/09/13 01:41:27;;;;;;;;;29.67;25.33;;;;;;;;5075859;27;45354;-79
2023/09/13 01:43:54;;;;;;;;;27.33;26.33;;;;;;;;5074752;28;46379;-78
2023/09/13 01:46:19;;;;;;;;;39.00;33.33;;;;;;;;5075761;27;45710;-78
2023/09/13 01:48:45;;;;;;;;;26.33;20.67;;;;;;;;5075446;28;45765;-74
2023/09/13 01:51:11;;;;;;;;;26.00;22.67;;;;;;;;5073766;27;45694;-75
2023/09/13 01:53:46;;;;;;;;;31.33;28.67;;;;;;;;5073805;27;45421;-75
2023/09/13 01:56:11;;;;;;;;;25.00;24.00;;;;;;;;5073626;27;45673;-73
2023/09/13 01:58:37;;;;;;;;;23.33;19.33;;;;;;;;5058344;28;45612;-75
2023/09/13 02:01:02;;;;;;;;;29.33;27.33;;;;;;;;5073009;27;45363;-74
2023/09/13 02:03:27;;;;;;;;;27.00;24.00;;;;;;;;5069038;27;45413;-73
2023/09/13 02:05:53;;;;;;;;;24.67;24.67;;;;;;;;5069237;28;46949;-75
2023/09/13 02:08:18;;;;;;;;;37.33;30.00;;;;;;;;5072481;28;45831;-74
2023/09/13 02:10:46;;;;;;;;;23.67;22.33;;;;;;;;5073241;27;45890;-74
2023/09/13 02:13:11;;;;;;;;;26.33;23.33;;;;;;;;5071922;28;46120;-72
2023/09/13 02:15:40;;;;;;;;;27.67;22.67;;;;;;;;5073959;28;45382;-72
2023/09/13 02:18:05;;;;;;;;;32.67;25.33;;;;;;;;5066690;27;45760;-73
2023/09/13 02:20:31;;;;;;;;;26.33;23.33;;;;;;;;5073538;27;45752;-73
2023/09/13 02:22:56;;;;;;;;;30.00;23.33;;;;;;;;5074077;28;45818;-76
2023/09/13 02:25:21;;;;;;;;;30.33;26.67;;;;;;;;5073472;28;47235;-73
2023/09/13 02:27:46;;;;;;;;;25.33;24.00;;;;;;;;5072841;27;45870;-73
2023/09/13 02:30:12;;;;;;;;;30.33;25.67;;;;;;;;5076335;27;45746;-74
2023/09/13 02:32:37;;;;;;;;;24.00;24.00;;;;;;;;5075090;27;47118;-74
2023/09/13 02:35:02;;;;;;;;;27.00;23.33;;;;;;;;5088545;27;46259;-74
2023/09/13 02:37:28;;;;;;;;;29.67;23.67;;;;;;;;5074791;27;45857;-74
2023/09/13 02:39:53;;;;;;;;;24.67;21.00;;;;;;;;5073977;27;45483;-75
2023/09/13 02:42:19;;;;;;;;;24.67;22.33;;;;;;;;5079730;27;45901;-79
2023/09/13 02:44:44;;;;;;;;;27.33;24.00;;;;;;;;5088087;27;46197;-79
2023/09/13 02:47:09;;;;;;;;;26.67;21.00;;;;;;;;5108020;27;45570;-79
2023/09/13 02:49:35;;;;;;;;;24.00;20.67;;;;;;;;5083835;28;45849;-78
2023/09/13 02:52:00;;;;;;;;;23.00;20.00;;;;;;;;5104687;27;45776;-78
2023/09/13 02:54:25;;;;;;;;;23.67;21.33;;;;;;;;5099402;27;45448;-78
2023/09/13 02:56:53;;;;;;;;;21.00;19.33;;;;;;;;5086712;27;45890;-79
2023/09/13 02:59:18;;;;;;;;;25.00;22.33;;;;;;;;5087120;27;45459;-80
2023/09/13 03:01:43;;;;;;;;;24.33;21.67;;;;;;;;5092668;27;46328;-80
2023/09/13 03:04:08;;;;;;;;;22.67;21.00;;;;;;;;5096867;27;45470;-79
2023/09/13 03:06:34;;;;;;;;;23.00;20.67;;;;;;;;5109910;27;45270;-79
2023/09/13 03:08:59;;;;;;;;;25.00;21.67;;;;;;;;5092305;27;45830;-78
2023/09/13 03:11:25;;;;;;;;;18.33;18.33;;;;;;;;5097148;27;45409;-79
2023/09/13 03:13:51;;;;;;;;;24.33;23.00;;;;;;;;5074148;27;45412;-78
2023/09/13 03:16:20;;;;;;;;;21.00;20.00;;;;;;;;5090074;27;45402;-79
2023/09/13 03:18:46;;;;;;;;;21.00;20.67;;;;;;;;5093788;27;45459;-80
2023/09/13 03:21:12;;;;;;;;;28.00;19.00;;;;;;;;5096952;27;45679;-80
2023/09/13 03:23:38;;;;;;;;;27.67;19.33;;;;;;;;5098474;27;45499;-80
2023/09/13 03:26:13;;;;;;;;;24.00;20.33;;;;;;;;5097603;27;45921;-79
2023/09/13 03:28:38;;;;;;;;;23.33;19.00;;;;;;;;5079372;27;45466;-80
2023/09/13 03:31:11;;;;;;;;;13.00;13.00;;;;;;;;5096266;27;45552;-80
2023/09/13 03:33:37;;;;;;;;;23.67;19.67;;;;;;;;5076977;27;46754;-79
2023/09/13 03:36:02;;;;;;;;;22.00;19.00;;;;;;;;5093032;27;45358;-78
2023/09/13 03:38:27;;;;;;;;;26.33;24.00;;;;;;;;5093135;27;45422;-78
2023/09/13 03:40:53;;;;;;;;;19.67;19.00;;;;;;;;5084589;27;45618;-80
2023/09/13 03:43:18;;;;;;;;;21.67;17.00;;;;;;;;5090789;27;46379;-79
2023/09/13 03:45:43;;;;;;;;;20.67;17.67;;;;;;;;5081487;27;45654;-79
2023/09/13 03:48:09;;;;;;;;;19.00;18.00;;;;;;;;5093127;27;45429;-81
2023/09/13 03:50:34;;;;;;;;;24.67;21.00;;;;;;;;5086651;27;45593;-80
2023/09/13 03:52:59;;;;;;;;;22.33;18.33;;;;;;;;5082853;27;45859;-81
2023/09/13 03:55:26;;;;;;;;;17.33;16.33;;;;;;;;5074467;27;46139;-79
2023/09/13 03:57:51;;;;;;;;;16.00;14.67;;;;;;;;5066946;28;45402;-79
2023/09/13 04:00:17;;;;;;;;;20.67;17.00;;;;;;;;5068092;27;46100;-80
2023/09/13 04:02:42;;;;;;;;;18.67;17.67;;;;;;;;5094384;27;45805;-79
2023/09/13 04:05:07;;;;;;;;;19.67;15.67;;;;;;;;5101256;27;45396;-79
2023/09/13 04:07:33;;;;;;;;;18.33;17.33;;;;;;;;5097524;27;45403;-78
2023/09/13 04:09:58;;;;;;;;;23.00;18.00;;;;;;;;5097042;27;45408;-79
2023/09/13 04:12:23;;;;;;;;;13.67;13.00;;;;;;;;5082268;27;45633;-78
2023/09/13 04:14:52;;;;;;;;;20.00;18.00;;;;;;;;5102351;27;45474;-79
2023/09/13 04:17:17;;;;;;;;;18.00;18.00;;;;;;;;5095608;27;45715;-81
2023/09/13 04:19:42;;;;;;;;;17.00;16.00;;;;;;;;5088507;27;44790;-79
2023/09/13 04:22:08;;;;;;;;;17.67;16.67;;;;;;;;5100948;27;45617;-79
2023/09/13 04:24:33;;;;;;;;;20.33;19.00;;;;;;;;5081542;27;46032;-78
2023/09/13 04:26:58;;;;;;;;;16.00;16.00;;;;;;;;5082276;28;45331;-78
2023/09/13 04:29:24;;;;;;;;;13.33;13.33;;;;;;;;5092107;27;45890;-79
2023/09/13 04:31:49;;;;;;;;;21.00;17.00;;;;;;;;5083278;27;45785;-78
2023/09/13 04:34:14;;;;;;;;;20.00;17.67;;;;;;;;5092146;27;45475;-80
2023/09/13 04:36:40;;;;;;;;;11.67;11.33;;;;;;;;5101464;27;45512;-80
2023/09/13 04:39:05;;;;;;;;;16.00;12.67;;;;;;;;5102968;27;45436;-82
2023/09/13 04:41:30;;;;;;;;;23.33;22.33;;;;;;;;5096807;27;46190;-79
2023/09/13 04:43:56;;;;;;;;;26.00;24.67;;;;;;;;5100556;27;45648;-80
2023/09/13 04:46:21;;;;;;;;;17.67;15.67;;;;;;;;5084454;27;45651;-81
2023/09/13 04:48:46;;;;;;;;;18.67;16.00;;;;;;;;5079661;27;45786;-81
2023/09/13 04:51:12;;;;;;;;;16.33;16.33;;;;;;;;5106141;27;45361;-80
2023/09/13 04:53:37;;;;;;;;;21.00;16.67;;;;;;;;5089762;27;45732;-80
2023/09/13 04:56:02;;;;;;;;;18.00;17.67;;;;;;;;5109078;27;45374;-80
2023/09/13 04:58:28;;;;;;;;;20.33;16.00;;;;;;;;5107858;27;45396;-80
2023/09/13 05:00:53;;;;;;;;;17.67;16.33;;;;;;;;5101615;27;45615;-79
2023/09/13 05:03:19;;;;;;;;;15.67;13.00;;;;;;;;5087529;27;45807;-79
2023/09/13 05:05:44;;;;;;;;;14.33;11.67;;;;;;;;5087288;27;45890;-80
2023/09/13 05:08:10;;;;;;;;;18.00;13.33;;;;;;;;5104430;27;45743;-80
2023/09/13 05:10:38;;;;;;;;;11.00;11.00;;;;;;;;5088065;27;47372;-81
2023/09/13 05:13:04;;;;;;;;;13.00;13.00;;;;;;;;5088671;27;45474;-78
2023/09/13 05:15:29;;;;;;;;;20.67;18.33;;;;;;;;5088341;27;45549;-81
2023/09/13 05:17:56;;;;;;;;;11.00;8.33;;;;;;;;5108087;27;45688;-82
2023/09/13 05:20:22;;;;;;;;;17.67;15.00;;;;;;;;5090488;27;47313;-81
2023/09/13 05:22:47;;;;;;;;;17.67;15.33;;;;;;;;5084796;27;45770;-82
2023/09/13 05:25:12;;;;;;;;;16.00;13.33;;;;;;;;5098855;27;45876;-82
2023/09/13 05:27:37;;;;;;;;;16.67;15.67;;;;;;;;5104761;27;45465;-80
2023/09/13 05:30:03;;;;;;;;;20.00;15.00;;;;;;;;5095728;27;46480;-82
2023/09/13 05:32:28;;;;;;;;;17.00;14.67;;;;;;;;5089409;27;44780;-81
2023/09/13 05:34:53;;;;;;;;;15.00;15.00;;;;;;;;5108022;27;44799;-80
2023/09/13 05:37:19;;;;;;;;;13.33;13.33;;;;;;;;5088258;27;46212;-81
2023/09/13 05:39:48;;;;;;;;;16.67;14.33;;;;;;;;5100839;27;45424;-85
2023/09/13 05:42:13;;;;;;;;;19.33;17.00;;;;;;;;5081832;27;44887;-79
2023/09/13 05:44:38;;;;;;;;;17.33;15.33;;;;;;;;5089015;27;45363;-81
2023/09/13 05:47:05;;;;;;;;;12.67;12.67;;;;;;;;5095010;27;45424;-81
2023/09/13 05:49:30;;;;;;;;;18.33;16.00;;;;;;;;5084014;28;47975;-81
2023/09/13 05:51:55;;;;;;;;;19.33;17.33;;;;;;;;5081903;27;45327;-81
2023/09/13 05:54:21;;;;;;;;;15.67;13.00;;;;;;;;5100049;27;45351;-82
2023/09/13 05:56:49;;;;;;;;;13.00;11.67;;;;;;;;5105011;27;45341;-82
2023/09/13 05:59:14;;;;;;;;;12.33;12.33;;;;;;;;5079690;27;46636;-81
2023/09/13 06:01:39;;;;;;;;;12.00;10.33;;;;;;;;5105450;27;45851;-79
2023/09/13 06:04:06;;;;;;;;;13.67;13.67;;;;;;;;5082986;27;44779;-80
2023/09/13 06:06:31;;;;;;;;;16.67;15.33;;;;;;;;5103398;27;45471;-80
2023/09/13 06:08:58;;;;;;;;;13.33;13.33;;;;;;;;5085242;27;46642;-81
2023/09/13 06:11:23;;;;;;;;;15.33;15.00;;;;;;;;5108821;27;45258;-79
2023/09/13 06:13:48;;;;;;;;;13.67;11.67;;;;;;;;5097570;27;45817;-82
2023/09/13 06:16:13;;;;;;;;;14.33;12.67;;;;;;;;5102967;27;45452;-81
2023/09/13 06:18:39;;;;;;;;;17.33;16.33;;;;;;;;5104688;27;45459;-81
2023/09/13 06:21:04;;;;;;;;;17.33;14.33;;;;;;;;5107382;27;45454;-81
2023/09/13 06:23:34;;;;;;;;;21.67;19.67;;;;;;;;5083350;27;45330;-81
2023/09/13 06:25:59;;;;;;;;;20.67;17.33;;;;;;;;5086970;27;45474;-81
2023/09/13 06:28:24;;;;;;;;;20.00;19.00;;;;;;;;5105254;27;46327;-81
2023/09/13 06:30:50;;;;;;;;;19.33;16.67;;;;;;;;5104520;27;45330;-82
2023/09/13 06:33:15;;;;;;;;;15.33;13.00;;;;;;;;5101838;27;45405;-80
2023/09/13 06:35:41;;;;;;;;;17.33;16.33;;;;;;;;5081460;27;45087;-82
2023/09/13 06:38:06;;;;;;;;;16.33;14.00;;;;;;;;5101771;27;45308;-82
2023/09/13 06:40:33;;;;;;;;;20.00;19.33;;;;;;;;5087943;27;44804;-79
2023/09/13 06:42:59;;;;;;;;;23.00;19.33;;;;;;;;5084729;27;45880;-80
2023/09/13 06:45:24;;;;;;;;;16.00;14.33;;;;;;;;5103040;27;45697;-81
2023/09/13 06:47:49;;;;;;;;;15.00;14.00;;;;;;;;5085853;27;47224;-81
2023/09/13 06:50:14;;;;;;;;;17.00;15.67;;;;;;;;5105054;27;44884;-82
2023/09/13 06:52:40;;;;;;;;;19.33;16.33;;;;;;;;5108039;27;45485;-84
2023/09/13 06:55:05;;;;;;;;;17.67;15.00;;;;;;;;5106754;27;45372;-83
2023/09/13 06:57:31;;;;;;;;;14.67;13.00;;;;;;;;5073834;28;45776;-83
2023/09/13 06:59:56;;;;;;;;;13.33;12.00;;;;;;;;5086501;27;45514;-80
2023/09/13 07:02:21;;;;;;;;;16.00;14.33;;;;;;;;5105130;27;46485;-80
2023/09/13 07:04:49;;;;;;;;;16.67;16.33;;;;;;;;5108420;27;45322;-84
2023/09/13 07:07:14;;;;;;;;;18.67;12.67;;;;;;;;5106659;27;45302;-84
2023/09/13 07:09:41;;;;;;;;;14.67;14.33;;;;;;;;5106072;27;45499;-80
2023/09/13 07:12:06;;;;;;;;;9.33;9.33;;;;;;;;5086042;27;45449;-81
2023/09/13 07:14:31;;;;;;;;;13.67;13.33;;;;;;;;5109426;27;44819;-80
2023/09/13 07:16:57;;;;;;;;;16.67;15.00;;;;;;;;5083614;27;46891;-81
2023/09/13 07:19:22;;;;;;;;;16.33;13.67;;;;;;;;5099966;27;45838;-81
2023/09/13 07:21:49;;;;;;;;;14.00;12.67;;;;;;;;5103368;27;45435;-83
2023/09/13 07:24:14;;;;;;;;;16.33;15.33;;;;;;;;5103319;27;45546;-80
2023/09/13 07:26:39;;;;;;;;;9.00;9.00;;;;;;;;5100450;27;46217;-82
2023/09/13 07:29:04;;;;;;;;;14.00;10.33;;;;;;;;5083714;27;45399;-85
2023/09/13 07:31:30;;;;;;;;;12.00;10.75;;;;;;;;5096134;27;45497;-81
2023/09/13 07:33:55;;;;;;;;;15.33;11.67;;;;;;;;5091403;27;45397;-80
2023/09/13 07:36:22;;;;;;;;;16.67;14.33;;;;;;;;5091787;27;46138;-84
2023/09/13 07:39:16;;;;;;;;;16.75;15.25;;;;;;;;5087489;27;44876;-82
2023/09/13 07:41:42;;;;;;;;;12.25;12.25;;;;;;;;5107903;27;44725;-83
2023/09/13 07:44:07;;;;;;;;;12.00;12.00;;;;;;;;5096055;27;45866;-84
2023/09/13 07:46:32;;;;;;;;;15.75;14.25;;;;;;;;5097039;27;45419;-82
2023/09/13 07:48:58;;;;;;;;;12.50;11.75;;;;;;;;5103299;27;44735;-82
2023/09/13 07:51:23;;;;;;;;;11.25;9.75;;;;;;;;5090097;27;45365;-82
2023/09/13 07:53:48;;;;;;;;;15.50;13.00;;;;;;;;5088848;27;47034;-82
2023/09/13 07:56:14;;;;;;;;;18.00;13.25;;;;;;;;5092409;27;46778;-82
2023/09/13 07:58:39;;;;;;;;;15.50;12.00;;;;;;;;5107461;27;45373;-84
2023/09/13 08:01:05;;;;;;;;;12.50;11.50;;;;;;;;5086660;27;46091;-84
2023/09/13 08:03:30;;;;;;;;;10.75;10.75;;;;;;;;5108339;27;46033;-82
2023/09/13 08:05:57;;;;;;;;;11.50;9.50;;;;;;;;5090905;27;47344;-82
2023/09/13 08:08:25;;;;;;;;;12.50;12.25;;;;;;;;5104838;27;44928;-82
2023/09/13 08:10:51;;;;;;;;;14.00;13.50;;;;;;;;5089294;27;45473;-82
2023/09/13 08:13:16;;;;;;;;;18.25;14.50;;;;;;;;5105439;27;45471;-81
2023/09/13 08:15:42;;;;;;;;;11.75;11.50;;;;;;;;5105991;27;45573;-81
2023/09/13 08:18:07;;;;;;;;;18.00;12.75;;;;;;;;5107706;27;45309;-82
2023/09/13 08:20:33;;;;;;;;;16.75;15.75;;;;;;;;5108847;27;45511;-82
2023/09/13 08:22:58;;;;;;;;;15.50;15.50;;;;;;;;5094927;27;45492;-81
2023/09/13 08:25:23;;;;;;;;;17.00;13.00;;;;;;;;5104882;27;46597;-81
2023/09/13 08:27:50;;;;;;;;;16.00;14.25;;;;;;;;5091496;27;45351;-83
2023/09/13 08:30:15;;;;;;;;;18.00;17.33;;;;;;;;5104368;27;45506;-82
2023/09/13 08:32:41;;;;;;;;;15.75;14.50;;;;;;;;5099185;27;45236;-82
2023/09/13 08:35:06;;;;;;;;;15.50;13.25;;;;;;;;5095391;27;46571;-81
2023/09/13 08:37:32;;;;;;;;;18.33;15.67;;;;;;;;5087920;27;45821;-83
2023/09/13 08:39:57;;;;;;;;;21.33;18.00;;;;;;;;5111759;27;44917;-84
2023/09/13 08:42:22;;;;;;;;;16.67;15.00;;;;;;;;5091531;27;45840;-83
2023/09/13 08:44:48;;;;;;;;;14.67;13.33;;;;;;;;5088623;28;47398;-82
2023/09/13 08:47:14;;;;;;;;;19.33;16.00;;;;;;;;5108740;27;44831;-82
2023/09/13 08:49:39;;;;;;;;;16.75;14.25;;;;;;;;5075430;28;45433;-82
2023/09/13 08:52:05;;;;;;;;;21.67;16.67;;;;;;;;5088398;27;44934;-82
2023/09/13 08:54:32;;;;;;;;;20.33;16.33;;;;;;;;5104732;27;45417;-78
2023/09/13 08:56:58;;;;;;;;;16.00;15.00;;;;;;;;5087150;27;44988;-78
2023/09/13 08:59:23;;;;;;;;;18.00;15.33;;;;;;;;5095140;27;45334;-82
2023/09/13 09:01:49;;;;;;;;;17.00;16.00;;;;;;;;5104107;27;45802;-82
2023/09/13 09:04:16;;;;;;;;;20.00;15.00;;;;;;;;5097298;27;46829;-81
2023/09/13 09:06:42;;;;;;;;;17.33;16.00;;;;;;;;5092274;27;45818;-81
2023/09/13 09:09:08;;;;;;;;;14.33;13.00;;;;;;;;5109796;27;45626;-79
2023/09/13 09:11:35;;;;;;;;;11.00;10.33;;;;;;;;5080753;27;46749;-77
2023/09/13 09:14:01;;;;;;;;;18.00;16.33;;;;;;;;5084698;27;46214;-78
2023/09/13 09:16:27;;;;;;;;;18.25;13.00;;;;;;;;5067886;27;46314;-81
2023/09/13 09:18:53;;;;;;;;;18.67;15.33;;;;;;;;5061804;27;45762;-83
2023/09/13 09:21:19;;;;;;;;;14.00;13.00;;;;;;;;5085811;27;45505;-79
2023/09/13 09:23:44;;;;;;;;;8.50;8.50;;;;;;;;5089140;27;45902;-81
2023/09/13 09:26:10;;;;;;;;;12.00;11.00;;;;;;;;5082264;27;45600;-82
2023/09/13 09:28:35;;;;;;;;;12.50;11.50;;;;;;;;5086304;27;45590;-77
2023/09/13 09:31:02;;;;;;;;;9.67;9.67;;;;;;;;5063339;27;46272;-80
2023/09/13 09:33:29;;;;;;;;;13.25;11.75;;;;;;;;5089055;27;47749;-79
2023/09/13 09:35:58;;;;;;;;;12.50;10.50;;;;;;;;5089765;27;45430;-79
2023/09/13 09:38:25;;;;;;;;;9.25;9.25;;;;;;;;5062191;27;45549;-79
2023/09/13 09:40:50;;;;;;;;;12.00;10.25;;;;;;;;5065847;27;45737;-79
2023/09/13 09:43:19;;;;;;;;;10.00;9.00;;;;;;;;5085479;27;45599;-79
2023/09/13 09:45:44;;;;;;;;;9.00;9.00;;;;;;;;5084858;27;45802;-79
2023/09/13 09:48:10;;;;;;;;;9.00;6.50;;;;;;;;5055814;27;45505;-79
2023/09/13 09:50:37;;;;;;;;;5.00;5.00;;;;;;;;5092950;27;45512;-78
2023/09/13 09:53:09;;;;;;;;;11.75;9.25;;;;;;;;5095757;27;46645;-85
2023/09/13 09:55:35;;;;;;;;;11.75;5.50;;;;;;;;5090664;27;44908;-83
2023/09/13 09:58:03;;;;;;;;;8.25;7.50;;;;;;;;5098205;27;45475;-84
2023/09/13 10:00:29;;;;;;;;;8.50;8.25;;;;;;;;5080507;27;47552;-83
2023/09/13 10:02:55;;;;;;;;;7.75;5.75;;;;;;;;5089012;27;45771;-84
2023/09/13 10:05:20;;;;;;;;;8.00;7.00;;;;;;;;5090184;27;46092;-83
2023/09/13 10:07:55;;;;;;;;;7.75;7.75;;;;;;;;5087070;27;45640;-82
2023/09/13 10:10:33;;;;;;;;;8.25;8.25;;;;;;;;5078519;27;45880;-82
2023/09/13 10:12:58;;;;;;;;;9.75;9.00;;;;;;;;5078122;27;47402;-83
2023/09/13 10:15:24;;;;;;;;;10.25;9.25;;;;;;;;5095710;27;45462;-82
2023/09/13 10:17:50;;;;;;;;;9.00;9.00;;;;;;;;5085655;27;45416;-81
2023/09/13 10:20:16;;;;;;;;;8.00;7.00;;;;;;;;5075687;27;46069;-81
2023/09/13 10:22:42;;;;;;;;;11.75;10.50;;;;;;;;5094758;27;45656;-84
2023/09/13 10:25:11;;;;;;;;;14.75;12.25;;;;;;;;5086784;27;45973;-84
2023/09/13 10:27:37;;;;;;;;;10.75;8.25;;;;;;;;5090787;27;45823;-84
2023/09/13 10:30:03;;;;;;;;;10.00;10.00;;;;;;;;5069514;27;46232;-86
2023/09/13 10:32:37;;;;;;;;;6.75;6.75;;;;;;;;5068826;27;48659;-77
2023/09/13 10:35:03;;;;;;;;;7.25;6.75;;;;;;;;5071795;27;46022;-79
2023/09/13 10:37:39;;;;;;;;;12.75;9.75;;;;;;;;5084401;27;45566;-78
2023/09/13 10:40:15;;;;;;;;;5.75;5.50;;;;;;;;5091004;27;45453;-81
2023/09/13 10:42:42;;;;;;;;;9.00;9.00;;;;;;;;5089387;27;47204;-81
2023/09/13 10:45:08;;;;;;;;;6.25;5.75;;;;;;;;5069653;27;45800;-81
2023/09/13 10:47:35;;;;;;;;;7.00;6.00;;;;;;;;5087883;27;45528;-80
2023/09/13 10:50:02;;;;;;;;;7.75;6.00;;;;;;;;5094078;27;45599;-84
2023/09/13 10:52:29;;;;;;;;;6.25;6.25;;;;;;;;5092641;27;45935;-81
2023/09/13 10:54:56;;;;;;;;;7.50;6.25;;;;;;;;5093636;27;45562;-88
2023/09/13 10:57:21;;;;;;;;;4.50;4.50;;;;;;;;5078163;27;45423;-79
2023/09/13 10:59:48;;;;;;;;;5.25;4.25;;;;;;;;5056447;28;46265;-80
2023/09/13 11:02:13;;;;;;;;;7.00;7.00;;;;;;;;5087043;27;45824;-77
2023/09/13 11:04:38;;;;;;;;;4.75;4.75;;;;;;;;5090466;27;45733;-79
2023/09/13 11:07:04;;;;;;;;;7.50;4.25;;;;;;;;5089931;27;45563;-77
2023/09/13 11:09:30;;;;;;;;;7.75;6.00;;;;;;;;5088628;27;45855;-76
2023/09/13 11:11:56;;;;;;;;;6.00;6.00;;;;;;;;5089164;27;45740;-78
2023/09/13 11:14:28;;;;;;;;;6.00;6.00;;;;;;;;5091321;27;45581;-76
2023/09/13 11:17:08;;;;;;;;;3.50;3.50;;;;;;;;5083920;27;45565;-76
2023/09/13 11:19:33;;;;;;;;;5.25;5.25;;;;;;;;5073102;27;45495;-76
2023/09/13 11:22:02;;;;;;;;;9.50;7.50;;;;;;;;5069341;27;48126;-76
2023/09/13 11:24:37;;;;;;;;;8.75;7.50;;;;;;;;5074220;27;45362;-80
2023/09/13 11:27:11;;;;;;;;;8.25;7.25;;;;;;;;5084543;27;45696;-77
2023/09/13 11:29:50;;;;;;;;;7.00;7.00;;;;;;;;5082043;27;46623;-77
2023/09/13 11:32:17;;;;;;;;;7.25;6.00;;;;;;;;5076612;27;45903;-76
2023/09/13 11:34:43;;;;;;;;;6.50;5.00;;;;;;;;5081420;27;45444;-75
2023/09/13 11:37:10;;;;;;;;;7.25;5.75;;;;;;;;5078703;27;45484;-77
2023/09/13 11:39:35;;;;;;;;;15.67;15.00;;;;;;;;5092472;27;45816;-75
2023/09/13 11:42:03;;;;;;;;;18.00;14.00;;;;;;;;5068528;27;45470;-77
2023/09/13 11:44:28;;;;;;;;;6.25;6.25;;;;;;;;5070257;27;46242;-75
2023/09/13 11:46:54;;;;;;;;;6.00;5.00;;;;;;;;5082474;27;45927;-76
2023/09/13 11:49:21;;;;;;;;;6.25;5.50;;;;;;;;5063234;27;45808;-76
2023/09/13 11:51:51;;;;;;;;;5.00;5.00;;;;;;;;5084907;27;45574;-76
2023/09/13 11:54:16;;;;;;;;;5.00;5.00;;;;;;;;5070676;27;46549;-77
2023/09/13 11:56:43;;;;;;;;;7.00;6.00;;;;;;;;5069486;27;45517;-76
2023/09/13 11:59:09;;;;;;;;;5.00;5.00;;;;;;;;5089815;27;45515;-74
2023/09/13 12:01:41;;;;;;;;;14.50;12.00;;;;;;;;5083887;27;45793;-77
2023/09/13 12:04:08;;;;;;;;;6.50;6.50;;;;;;;;5061628;27;46053;-79
2023/09/13 12:06:57;;;;;;;;;9.25;8.00;;;;;;;;5074434;27;45483;-80
2023/09/13 12:09:23;;;;;;;;;7.00;6.00;;;;;;;;5086838;27;45576;-78
2023/09/13 12:11:49;;;;;;;;;7.00;5.25;;;;;;;;5091013;27;46251;-78
2023/09/13 12:14:15;;;;;;;;;8.25;6.00;;;;;;;;5083863;27;45708;-79
2023/09/13 12:16:42;;;;;;;;;8.75;6.25;;;;;;;;5085124;27;45916;-77
2023/09/13 12:19:07;;;;;;;;;11.25;9.50;;;;;;;;5087135;27;45951;-79
2023/09/13 12:21:33;;;;;;;;;4.50;4.50;;;;;;;;5075821;27;47008;-78
2023/09/13 12:23:58;;;;;;;;;3.25;3.25;;;;;;;;5071566;27;46202;-81
2023/09/13 12:26:24;;;;;;;;;7.50;4.25;;;;;;;;5071408;27;45556;-76
2023/09/13 12:28:49;;;;;;;;;3.00;2.00;;;;;;;;5083212;27;45810;-78
2023/09/13 12:31:16;;;;;;;;;7.75;4.75;;;;;;;;5089686;27;45835;-77
2023/09/13 12:33:48;;;;;;;;;3.25;3.00;;;;;;;;5092226;27;45524;-76
2023/09/13 12:36:13;;;;;;;;;4.00;4.00;;;;;;;;5061275;27;45873;-80
2023/09/13 12:38:41;;;;;;;;;3.50;2.75;;;;;;;;5091522;27;45781;-82
2023/09/13 12:41:07;;;;;;;;;3.75;3.75;;;;;;;;5092415;27;45437;-77
2023/09/13 12:43:35;;;;;;;;;2.75;2.75;;;;;;;;5087882;27;45682;-77
2023/09/13 12:46:01;;;;;;;;;3.00;3.00;;;;;;;;5084372;27;45702;-78
2023/09/13 12:48:27;;;;;;;;;5.00;4.00;;;;;;;;5084678;27;45424;-79
2023/09/13 12:50:52;;;;;;;;;4.00;3.25;;;;;;;;5093689;27;45447;-77
2023/09/13 12:53:18;;;;;;;;;4.25;4.25;;;;;;;;5074273;27;45734;-76
2023/09/13 12:55:43;;;;;;;;;4.00;4.00;;;;;;;;5094356;27;45587;-77
2023/09/13 12:58:08;;;;;;;;;5.25;3.75;;;;;;;;5082883;27;45387;-78
2023/09/13 13:00:53;;;;;;;;;3.75;3.00;;;;;;;;5093255;27;46890;-75
2023/09/13 13:03:19;;;;;;;;;3.50;3.50;;;;;;;;5092228;27;45646;-79
2023/09/13 13:05:46;;;;;;;;;4.00;4.00;;;;;;;;5064181;27;45839;-78
2023/09/13 13:08:11;;;;;;;;;5.00;3.75;;;;;;;;5090200;27;45554;-78
2023/09/13 13:10:52;;;;;;;;;4.50;3.25;;;;;;;;5085095;27;47183;-78
2023/09/13 13:13:18;;;;;;;;;4.00;4.00;;;;;;;;5088859;27;45713;-77
2023/09/13 13:15:43;;;;;;;;;2.75;2.75;;;;;;;;5090671;27;47361;-78
2023/09/13 13:18:11;;;;;;;;;3.50;1.50;;;;;;;;5083725;27;45526;-80
2023/09/13 13:20:43;;;;;;;;;3.00;3.00;;;;;;;;5081312;27;45568;-78
2023/09/13 13:23:08;;;;;;;;;6.00;3.00;;;;;;;;5087144;27;45898;-78
2023/09/13 13:25:38;;;;;;;;;3.75;3.75;;;;;;;;5095197;27;45683;-86
2023/09/13 13:28:03;;;;;;;;;3.50;3.50;;;;;;;;5094644;27;45425;-80
2023/09/13 13:30:29;;;;;;;;;3.50;2.25;;;;;;;;5090268;27;46054;-80
2023/09/13 13:32:54;;;;;;;;;4.00;3.25;;;;;;;;5093313;27;45756;-81
2023/09/13 13:35:19;;;;;;;;;4.00;3.25;;;;;;;;5090068;27;45826;-80
2023/09/13 13:37:45;;;;;;;;;3.25;2.25;;;;;;;;5079429;27;45695;-79
2023/09/13 13:40:10;;;;;;;;;3.25;3.25;;;;;;;;5075554;27;46605;-80
2023/09/13 13:42:36;;;;;;;;;2.00;2.00;;;;;;;;5075666;27;45874;-79
2023/09/13 13:45:01;;;;;;;;;3.75;3.75;;;;;;;;5081224;27;45860;-78
2023/09/13 13:47:26;;;;;;;;;3.75;3.75;;;;;;;;5077281;27;46435;-78
2023/09/13 13:49:52;;;;;;;;;6.00;4.00;;;;;;;;5078578;27;46471;-77
2023/09/13 13:52:17;;;;;;;;;3.25;3.25;;;;;;;;5073427;27;45603;-79
2023/09/13 13:54:42;;;;;;;;;4.75;3.75;;;;;;;;5079795;27;45534;-78
2023/09/13 13:57:07;;;;;;;;;4.50;2.25;;;;;;;;5067233;27;46049;-79
2023/09/13 13:59:33;;;;;;;;;2.00;2.00;;;;;;;;5088332;27;45408;-79
2023/09/13 14:01:58;;;;;;;;;4.25;3.00;;;;;;;;5086214;27;45481;-78
2023/09/13 14:04:23;;;;;;;;;4.00;4.00;;;;;;;;5086931;27;45391;-79
2023/09/13 14:06:49;;;;;;;;;3.00;3.00;;;;;;;;5088344;27;45848;-80
2023/09/13 14:09:17;;;;;;;;;6.00;4.00;;;;;;;;5087258;27;46493;-80
2023/09/13 14:11:42;;;;;;;;;3.00;3.00;;;;;;;;5080616;27;45423;-79
2023/09/13 14:14:08;;;;;;;;;4.50;3.50;;;;;;;;5081064;27;45579;-78
2023/09/13 14:16:33;;;;;;;;;3.50;3.00;;;;;;;;5079313;27;45528;-79
2023/09/13 14:18:59;;;;;;;;;3.00;2.00;;;;;;;;5086847;27;46455;-78
2023/09/13 14:21:24;;;;;;;;;2.50;2.50;;;;;;;;5080543;27;45564;-78